sensor_id;sensor_type;location;lat;lon;timestamp;P1;durP1;ratioP1;P2;durP2;ratioP2
20036;SDS011;10179;42.640;23.312;2022-07-29T00:00:58;8.55;;;6.30;;
20036;SDS011;10179;42.640;23.312;2022-07-29T00:03:23;6.97;;;5.55;;
20036;SDS011;10179;42.640;23.312;2022-07-29T00:05:49;11.27;;;6.32;;
20036;SDS011;10179;42.640;23.312;2022-07-29T00:08:14;10.88;;;6.13;;
20036;SDS011;10179;42.640;23.312;2022-07-29T00:10:40;9.95;;;6.32;;
20036;SDS011;10179;42.640;23.312;2022-07-29T00:13:06;11.68;;;6.82;;
20036;SDS011;10179;42.640;23.312;2022-07-29T00:15:32;8.48;;;6.43;;
20036;SDS011;10179;42.640;23.312;2022-07-29T00:17:58;8.23;;;6.10;;
20036;SDS011;10179;42.640;23.312;2022-07-29T00:20:24;9.73;;;6.05;;
20036;SDS011;10179;42.640;23.312;2022-07-29T00:22:49;8.75;;;6.50;;
20036;SDS011;10179;42.640;23.312;2022-07-29T00:25:15;8.77;;;6.28;;
20036;SDS011;10179;42.640;23.312;2022-07-29T00:27:40;7.93;;;6.43;;
20036;SDS011;10179;42.640;23.312;2022-07-29T00:30:06;10.15;;;6.80;;
20036;SDS011;10179;42.640;23.312;2022-07-29T00:32:32;8.32;;;6.50;;
20036;SDS011;10179;42.640;23.312;2022-07-29T00:34:58;8.93;;;6.30;;
20036;SDS011;10179;42.640;23.312;2022-07-29T00:37:42;9.23;;;6.72;;
20036;SDS011;10179;42.640;23.312;2022-07-29T00:40:07;8.73;;;6.32;;
20036;SDS011;10179;42.640;23.312;2022-07-29T00:42:46;7.68;;;6.38;;
20036;SDS011;10179;42.640;23.312;2022-07-29T00:45:13;8.27;;;6.57;;
20036;SDS011;10179;42.640;23.312;2022-07-29T00:47:39;8.50;;;6.40;;
20036;SDS011;10179;42.640;23.312;2022-07-29T00:50:06;10.23;;;6.65;;
20036;SDS011;10179;42.640;23.312;2022-07-29T00:52:33;9.45;;;6.53;;
20036;SDS011;10179;42.640;23.312;2022-07-29T00:55:00;9.15;;;6.32;;
20036;SDS011;10179;42.640;23.312;2022-07-29T00:57:28;10.07;;;7.00;;
20036;SDS011;10179;42.640;23.312;2022-07-29T00:59:54;9.70;;;6.85;;
20036;SDS011;10179;42.640;23.312;2022-07-29T01:02:19;10.88;;;6.68;;
20036;SDS011;10179;42.640;23.312;2022-07-29T01:04:45;8.25;;;6.15;;
20036;SDS011;10179;42.640;23.312;2022-07-29T01:07:10;9.10;;;6.38;;
20036;SDS011;10179;42.640;23.312;2022-07-29T01:09:36;10.07;;;6.53;;
20036;SDS011;10179;42.640;23.312;2022-07-29T01:12:02;10.00;;;6.57;;
20036;SDS011;10179;42.640;23.312;2022-07-29T01:14:29;8.07;;;6.57;;
20036;SDS011;10179;42.640;23.312;2022-07-29T01:17:00;8.05;;;6.43;;
20036;SDS011;10179;42.640;23.312;2022-07-29T01:27:46;13.88;;;8.40;;
20036;SDS011;10179;42.640;23.312;2022-07-29T01:30:21;12.00;;;8.10;;
20036;SDS011;10179;42.640;23.312;2022-07-29T01:32:49;11.45;;;8.15;;
20036;SDS011;10179;42.640;23.312;2022-07-29T01:35:26;11.45;;;8.07;;
20036;SDS011;10179;42.640;23.312;2022-07-29T01:43:31;10.35;;;7.97;;
20036;SDS011;10179;42.640;23.312;2022-07-29T01:46:02;11.20;;;8.07;;
20036;SDS011;10179;42.640;23.312;2022-07-29T01:48:44;11.25;;;7.63;;
20036;SDS011;10179;42.640;23.312;2022-07-29T01:51:19;10.30;;;7.97;;
20036;SDS011;10179;42.640;23.312;2022-07-29T01:53:54;11.90;;;8.63;;
20036;SDS011;10179;42.640;23.312;2022-07-29T01:56:38;12.98;;;7.93;;
20036;SDS011;10179;42.640;23.312;2022-07-29T01:59:04;10.93;;;7.80;;
20036;SDS011;10179;42.640;23.312;2022-07-29T02:01:33;9.60;;;7.32;;
20036;SDS011;10179;42.640;23.312;2022-07-29T02:04:03;13.25;;;8.13;;
20036;SDS011;10179;42.640;23.312;2022-07-29T02:06:32;11.05;;;8.27;;
20036;SDS011;10179;42.640;23.312;2022-07-29T02:08:59;11.52;;;8.00;;
20036;SDS011;10179;42.640;23.312;2022-07-29T02:11:27;10.50;;;8.02;;
20036;SDS011;10179;42.640;23.312;2022-07-29T02:13:54;9.77;;;7.38;;
20036;SDS011;10179;42.640;23.312;2022-07-29T02:16:23;10.35;;;8.18;;
20036;SDS011;10179;42.640;23.312;2022-07-29T02:18:52;10.50;;;8.02;;
20036;SDS011;10179;42.640;23.312;2022-07-29T02:21:23;11.88;;;7.97;;
20036;SDS011;10179;42.640;23.312;2022-07-29T02:23:51;12.82;;;8.27;;
20036;SDS011;10179;42.640;23.312;2022-07-29T02:26:19;11.88;;;7.93;;
20036;SDS011;10179;42.640;23.312;2022-07-29T02:28:47;11.40;;;8.52;;
20036;SDS011;10179;42.640;23.312;2022-07-29T02:31:15;13.27;;;9.50;;
20036;SDS011;10179;42.640;23.312;2022-07-29T02:33:43;13.13;;;8.82;;
20036;SDS011;10179;42.640;23.312;2022-07-29T02:36:11;12.18;;;9.00;;
20036;SDS011;10179;42.640;23.312;2022-07-29T02:38:36;11.65;;;9.02;;
20036;SDS011;10179;42.640;23.312;2022-07-29T02:41:40;11.77;;;8.73;;
20036;SDS011;10179;42.640;23.312;2022-07-29T02:44:16;13.43;;;8.68;;
20036;SDS011;10179;42.640;23.312;2022-07-29T02:46:50;14.75;;;9.20;;
20036;SDS011;10179;42.640;23.312;2022-07-29T02:52:26;13.38;;;9.30;;
20036;SDS011;10179;42.640;23.312;2022-07-29T02:58:02;12.30;;;9.18;;
20036;SDS011;10179;42.640;23.312;2022-07-29T03:00:37;13.38;;;8.57;;
20036;SDS011;10179;42.640;23.312;2022-07-29T03:03:06;13.52;;;9.50;;
20036;SDS011;10179;42.640;23.312;2022-07-29T03:05:34;10.40;;;8.85;;
20036;SDS011;10179;42.640;23.312;2022-07-29T03:08:01;12.43;;;8.82;;
20036;SDS011;10179;42.640;23.312;2022-07-29T03:10:29;13.15;;;9.93;;
20036;SDS011;10179;42.640;23.312;2022-07-29T03:12:56;13.63;;;8.73;;
20036;SDS011;10179;42.640;23.312;2022-07-29T03:15:22;13.85;;;9.68;;
20036;SDS011;10179;42.640;23.312;2022-07-29T03:17:49;16.38;;;10.20;;
20036;SDS011;10179;42.640;23.312;2022-07-29T03:20:15;15.77;;;10.55;;
20036;SDS011;10179;42.640;23.312;2022-07-29T03:22:41;13.95;;;9.88;;
20036;SDS011;10179;42.640;23.312;2022-07-29T03:25:09;24.48;;;10.63;;
20036;SDS011;10179;42.640;23.312;2022-07-29T03:27:36;12.68;;;9.50;;
20036;SDS011;10179;42.640;23.312;2022-07-29T03:30:02;18.02;;;10.75;;
20036;SDS011;10179;42.640;23.312;2022-07-29T03:32:28;14.30;;;10.25;;
20036;SDS011;10179;42.640;23.312;2022-07-29T03:34:53;17.38;;;10.70;;
20036;SDS011;10179;42.640;23.312;2022-07-29T03:37:19;14.48;;;9.93;;
20036;SDS011;10179;42.640;23.312;2022-07-29T03:39:44;16.70;;;10.60;;
20036;SDS011;10179;42.640;23.312;2022-07-29T03:42:13;19.50;;;11.65;;
20036;SDS011;10179;42.640;23.312;2022-07-29T03:44:40;16.55;;;10.98;;
20036;SDS011;10179;42.640;23.312;2022-07-29T03:47:08;17.05;;;10.75;;
20036;SDS011;10179;42.640;23.312;2022-07-29T03:49:36;16.85;;;10.80;;
20036;SDS011;10179;42.640;23.312;2022-07-29T03:52:03;13.45;;;9.68;;
20036;SDS011;10179;42.640;23.312;2022-07-29T03:54:29;14.35;;;10.93;;
20036;SDS011;10179;42.640;23.312;2022-07-29T03:56:55;13.05;;;10.05;;
20036;SDS011;10179;42.640;23.312;2022-07-29T03:59:25;14.23;;;10.60;;
20036;SDS011;10179;42.640;23.312;2022-07-29T04:01:51;13.07;;;9.65;;
20036;SDS011;10179;42.640;23.312;2022-07-29T04:04:17;13.50;;;10.13;;
20036;SDS011;10179;42.640;23.312;2022-07-29T04:06:44;13.65;;;10.07;;
20036;SDS011;10179;42.640;23.312;2022-07-29T04:09:10;16.90;;;10.75;;
20036;SDS011;10179;42.640;23.312;2022-07-29T04:11:37;18.70;;;9.80;;
20036;SDS011;10179;42.640;23.312;2022-07-29T04:14:04;13.43;;;10.52;;
20036;SDS011;10179;42.640;23.312;2022-07-29T04:16:29;17.50;;;10.68;;
20036;SDS011;10179;42.640;23.312;2022-07-29T04:18:55;16.20;;;10.30;;
20036;SDS011;10179;42.640;23.312;2022-07-29T04:21:20;14.10;;;10.30;;
20036;SDS011;10179;42.640;23.312;2022-07-29T04:23:46;17.73;;;9.90;;
20036;SDS011;10179;42.640;23.312;2022-07-29T04:26:14;12.77;;;9.32;;
20036;SDS011;10179;42.640;23.312;2022-07-29T04:28:43;15.60;;;9.75;;
20036;SDS011;10179;42.640;23.312;2022-07-29T04:31:09;12.13;;;9.00;;
20036;SDS011;10179;42.640;23.312;2022-07-29T04:33:35;13.73;;;9.35;;
20036;SDS011;10179;42.640;23.312;2022-07-29T04:36:01;15.48;;;9.65;;
20036;SDS011;10179;42.640;23.312;2022-07-29T04:38:26;14.90;;;8.98;;
20036;SDS011;10179;42.640;23.312;2022-07-29T04:40:51;13.32;;;9.25;;
20036;SDS011;10179;42.640;23.312;2022-07-29T04:43:17;14.77;;;9.80;;
20036;SDS011;10179;42.640;23.312;2022-07-29T04:45:42;14.50;;;10.02;;
20036;SDS011;10179;42.640;23.312;2022-07-29T04:48:08;19.90;;;12.00;;
20036;SDS011;10179;42.640;23.312;2022-07-29T04:50:33;20.45;;;12.18;;
20036;SDS011;10179;42.640;23.312;2022-07-29T04:52:59;20.73;;;12.30;;
20036;SDS011;10179;42.640;23.312;2022-07-29T04:55:24;13.45;;;8.45;;
20036;SDS011;10179;42.640;23.312;2022-07-29T04:57:50;19.38;;;11.85;;
20036;SDS011;10179;42.640;23.312;2022-07-29T05:00:16;16.83;;;10.75;;
20036;SDS011;10179;42.640;23.312;2022-07-29T05:02:42;14.20;;;10.43;;
20036;SDS011;10179;42.640;23.312;2022-07-29T05:05:08;14.50;;;10.27;;
20036;SDS011;10179;42.640;23.312;2022-07-29T05:07:33;14.70;;;8.80;;
20036;SDS011;10179;42.640;23.312;2022-07-29T05:09:59;17.35;;;11.35;;
20036;SDS011;10179;42.640;23.312;2022-07-29T05:12:25;13.18;;;8.65;;
20036;SDS011;10179;42.640;23.312;2022-07-29T05:14:51;17.85;;;10.10;;
20036;SDS011;10179;42.640;23.312;2022-07-29T05:17:16;19.83;;;11.02;;
20036;SDS011;10179;42.640;23.312;2022-07-29T05:19:42;11.95;;;8.45;;
20036;SDS011;10179;42.640;23.312;2022-07-29T05:22:08;11.80;;;7.20;;
20036;SDS011;10179;42.640;23.312;2022-07-29T05:24:33;14.30;;;8.00;;
20036;SDS011;10179;42.640;23.312;2022-07-29T05:26:59;10.98;;;7.20;;
20036;SDS011;10179;42.640;23.312;2022-07-29T05:29:24;11.98;;;7.40;;
20036;SDS011;10179;42.640;23.312;2022-07-29T05:31:49;13.60;;;6.75;;
20036;SDS011;10179;42.640;23.312;2022-07-29T05:34:16;9.50;;;6.57;;
20036;SDS011;10179;42.640;23.312;2022-07-29T05:36:42;8.85;;;6.20;;
20036;SDS011;10179;42.640;23.312;2022-07-29T05:39:07;9.27;;;5.43;;
20036;SDS011;10179;42.640;23.312;2022-07-29T05:41:33;10.35;;;5.28;;
20036;SDS011;10179;42.640;23.312;2022-07-29T05:43:58;12.20;;;5.80;;
20036;SDS011;10179;42.640;23.312;2022-07-29T05:46:24;9.82;;;5.72;;
20036;SDS011;10179;42.640;23.312;2022-07-29T05:48:49;9.95;;;5.45;;
20036;SDS011;10179;42.640;23.312;2022-07-29T05:51:14;11.30;;;5.60;;
20036;SDS011;10179;42.640;23.312;2022-07-29T05:53:40;11.07;;;5.60;;
20036;SDS011;10179;42.640;23.312;2022-07-29T05:56:06;10.13;;;5.22;;
20036;SDS011;10179;42.640;23.312;2022-07-29T05:58:32;9.63;;;5.50;;
20036;SDS011;10179;42.640;23.312;2022-07-29T06:00:57;9.52;;;5.28;;
20036;SDS011;10179;42.640;23.312;2022-07-29T06:03:24;8.98;;;5.43;;
20036;SDS011;10179;42.640;23.312;2022-07-29T06:05:50;9.43;;;4.88;;
20036;SDS011;10179;42.640;23.312;2022-07-29T06:08:15;7.57;;;5.28;;
20036;SDS011;10179;42.640;23.312;2022-07-29T06:10:42;9.18;;;5.10;;
20036;SDS011;10179;42.640;23.312;2022-07-29T06:13:07;10.90;;;5.00;;
20036;SDS011;10179;42.640;23.312;2022-07-29T06:15:33;10.73;;;5.10;;
20036;SDS011;10179;42.640;23.312;2022-07-29T06:17:58;9.50;;;5.20;;
20036;SDS011;10179;42.640;23.312;2022-07-29T06:20:24;10.43;;;5.57;;
20036;SDS011;10179;42.640;23.312;2022-07-29T06:22:49;8.60;;;5.20;;
20036;SDS011;10179;42.640;23.312;2022-07-29T06:25:14;8.68;;;5.30;;
20036;SDS011;10179;42.640;23.312;2022-07-29T06:27:41;9.02;;;4.65;;
20036;SDS011;10179;42.640;23.312;2022-07-29T06:30:06;11.20;;;5.07;;
20036;SDS011;10179;42.640;23.312;2022-07-29T06:32:32;9.52;;;5.47;;
20036;SDS011;10179;42.640;23.312;2022-07-29T06:34:58;6.97;;;4.97;;
20036;SDS011;10179;42.640;23.312;2022-07-29T06:37:24;11.57;;;5.82;;
20036;SDS011;10179;42.640;23.312;2022-07-29T06:39:49;10.02;;;5.15;;
20036;SDS011;10179;42.640;23.312;2022-07-29T06:42:35;10.07;;;5.38;;
20036;SDS011;10179;42.640;23.312;2022-07-29T06:45:00;9.75;;;4.65;;
20036;SDS011;10179;42.640;23.312;2022-07-29T06:47:26;7.63;;;5.20;;
20036;SDS011;10179;42.640;23.312;2022-07-29T06:49:51;14.43;;;5.13;;
20036;SDS011;10179;42.640;23.312;2022-07-29T06:52:16;16.40;;;4.80;;
20036;SDS011;10179;42.640;23.312;2022-07-29T06:54:42;10.35;;;5.05;;
20036;SDS011;10179;42.640;23.312;2022-07-29T06:57:13;14.00;;;5.53;;
20036;SDS011;10179;42.640;23.312;2022-07-29T06:59:38;7.18;;;4.63;;
20036;SDS011;10179;42.640;23.312;2022-07-29T07:02:04;9.27;;;5.60;;
20036;SDS011;10179;42.640;23.312;2022-07-29T07:04:29;7.65;;;5.25;;
20036;SDS011;10179;42.640;23.312;2022-07-29T07:06:55;7.82;;;5.32;;
20036;SDS011;10179;42.640;23.312;2022-07-29T07:09:20;10.45;;;5.50;;
20036;SDS011;10179;42.640;23.312;2022-07-29T07:11:46;10.45;;;5.53;;
20036;SDS011;10179;42.640;23.312;2022-07-29T07:14:11;10.30;;;5.63;;
20036;SDS011;10179;42.640;23.312;2022-07-29T07:16:37;9.88;;;4.97;;
20036;SDS011;10179;42.640;23.312;2022-07-29T07:19:02;12.48;;;5.25;;
20036;SDS011;10179;42.640;23.312;2022-07-29T07:21:28;9.07;;;5.15;;
20036;SDS011;10179;42.640;23.312;2022-07-29T07:23:54;9.13;;;5.07;;
20036;SDS011;10179;42.640;23.312;2022-07-29T07:26:19;9.63;;;5.20;;
20036;SDS011;10179;42.640;23.312;2022-07-29T07:28:45;14.10;;;4.80;;
20036;SDS011;10179;42.640;23.312;2022-07-29T07:31:10;8.90;;;4.93;;
20036;SDS011;10179;42.640;23.312;2022-07-29T07:33:36;10.88;;;4.75;;
20036;SDS011;10179;42.640;23.312;2022-07-29T07:36:02;11.02;;;3.88;;
20036;SDS011;10179;42.640;23.312;2022-07-29T07:38:28;9.50;;;4.30;;
20036;SDS011;10179;42.640;23.312;2022-07-29T07:40:55;10.02;;;4.57;;
20036;SDS011;10179;42.640;23.312;2022-07-29T07:43:20;8.15;;;4.22;;
20036;SDS011;10179;42.640;23.312;2022-07-29T07:45:46;5.70;;;4.13;;
20036;SDS011;10179;42.640;23.312;2022-07-29T07:48:12;8.50;;;4.05;;
20036;SDS011;10179;42.640;23.312;2022-07-29T07:50:38;5.75;;;3.40;;
20036;SDS011;10179;42.640;23.312;2022-07-29T07:53:04;5.90;;;4.15;;
20036;SDS011;10179;42.640;23.312;2022-07-29T07:55:29;6.28;;;3.92;;
20036;SDS011;10179;42.640;23.312;2022-07-29T07:57:55;4.90;;;3.50;;
20036;SDS011;10179;42.640;23.312;2022-07-29T08:00:21;10.27;;;3.97;;
20036;SDS011;10179;42.640;23.312;2022-07-29T08:02:47;10.10;;;3.60;;
20036;SDS011;10179;42.640;23.312;2022-07-29T08:05:13;6.30;;;3.75;;
20036;SDS011;10179;42.640;23.312;2022-07-29T08:07:42;4.68;;;3.08;;
20036;SDS011;10179;42.640;23.312;2022-07-29T08:10:09;7.07;;;3.58;;
20036;SDS011;10179;42.640;23.312;2022-07-29T08:12:35;6.53;;;3.40;;
20036;SDS011;10179;42.640;23.312;2022-07-29T08:15:00;4.07;;;3.60;;
20036;SDS011;10179;42.640;23.312;2022-07-29T08:17:26;5.25;;;3.45;;
20036;SDS011;10179;42.640;23.312;2022-07-29T08:19:51;5.82;;;3.47;;
20036;SDS011;10179;42.640;23.312;2022-07-29T08:22:17;4.72;;;3.42;;
20036;SDS011;10179;42.640;23.312;2022-07-29T08:24:43;5.82;;;3.35;;
20036;SDS011;10179;42.640;23.312;2022-07-29T08:27:12;5.43;;;3.22;;
20036;SDS011;10179;42.640;23.312;2022-07-29T08:29:38;6.78;;;3.35;;
20036;SDS011;10179;42.640;23.312;2022-07-29T08:32:04;6.47;;;3.13;;
20036;SDS011;10179;42.640;23.312;2022-07-29T08:34:30;5.43;;;3.30;;
20036;SDS011;10179;42.640;23.312;2022-07-29T08:36:57;4.65;;;3.25;;
20036;SDS011;10179;42.640;23.312;2022-07-29T08:39:22;6.10;;;3.17;;
20036;SDS011;10179;42.640;23.312;2022-07-29T08:41:49;7.13;;;3.42;;
20036;SDS011;10179;42.640;23.312;2022-07-29T08:44:16;3.90;;;2.95;;
20036;SDS011;10179;42.640;23.312;2022-07-29T08:46:42;5.65;;;2.88;;
20036;SDS011;10179;42.640;23.312;2022-07-29T08:49:07;5.97;;;2.90;;
20036;SDS011;10179;42.640;23.312;2022-07-29T08:51:33;5.45;;;3.17;;
20036;SDS011;10179;42.640;23.312;2022-07-29T08:54:00;6.90;;;3.47;;
20036;SDS011;10179;42.640;23.312;2022-07-29T08:56:26;15.55;;;3.58;;
20036;SDS011;10179;42.640;23.312;2022-07-29T08:58:52;5.45;;;2.72;;
20036;SDS011;10179;42.640;23.312;2022-07-29T09:01:22;4.05;;;3.08;;
20036;SDS011;10179;42.640;23.312;2022-07-29T09:03:49;4.45;;;3.22;;
20036;SDS011;10179;42.640;23.312;2022-07-29T09:06:19;4.10;;;3.25;;
20036;SDS011;10179;42.640;23.312;2022-07-29T09:08:47;4.53;;;3.42;;
20036;SDS011;10179;42.640;23.312;2022-07-29T09:11:13;7.68;;;3.40;;
20036;SDS011;10179;42.640;23.312;2022-07-29T09:13:39;4.40;;;3.03;;
20036;SDS011;10179;42.640;23.312;2022-07-29T09:16:06;6.57;;;3.78;;
20036;SDS011;10179;42.640;23.312;2022-07-29T09:21:00;6.95;;;3.70;;
20036;SDS011;10179;42.640;23.312;2022-07-29T09:24:04;4.95;;;3.70;;
20036;SDS011;10179;42.640;23.312;2022-07-29T09:26:39;5.05;;;3.55;;
20036;SDS011;10179;42.640;23.312;2022-07-29T09:29:14;4.30;;;3.33;;
20036;SDS011;10179;42.640;23.312;2022-07-29T09:31:42;6.65;;;3.85;;
20036;SDS011;10179;42.640;23.312;2022-07-29T09:34:13;4.57;;;3.35;;
20036;SDS011;10179;42.640;23.312;2022-07-29T09:36:41;7.85;;;3.95;;
20036;SDS011;10179;42.640;23.312;2022-07-29T09:39:08;6.47;;;3.70;;
20036;SDS011;10179;42.640;23.312;2022-07-29T09:41:47;6.88;;;3.58;;
20036;SDS011;10179;42.640;23.312;2022-07-29T09:44:20;3.80;;;3.42;;
20036;SDS011;10179;42.640;23.312;2022-07-29T09:49:31;6.18;;;3.50;;
20036;SDS011;10179;42.640;23.312;2022-07-29T09:51:59;4.50;;;3.63;;
20036;SDS011;10179;42.640;23.312;2022-07-29T09:54:32;4.55;;;3.85;;
20036;SDS011;10179;42.640;23.312;2022-07-29T09:57:21;4.85;;;3.83;;
20036;SDS011;10179;42.640;23.312;2022-07-29T10:02:21;4.30;;;3.60;;
20036;SDS011;10179;42.640;23.312;2022-07-29T10:04:47;4.28;;;3.88;;
20036;SDS011;10179;42.640;23.312;2022-07-29T10:07:12;5.50;;;3.90;;
20036;SDS011;10179;42.640;23.312;2022-07-29T10:09:38;8.80;;;3.75;;
20036;SDS011;10179;42.640;23.312;2022-07-29T10:12:10;4.47;;;3.72;;
20036;SDS011;10179;42.640;23.312;2022-07-29T10:14:39;7.20;;;3.65;;
20036;SDS011;10179;42.640;23.312;2022-07-29T10:17:06;7.55;;;4.40;;
20036;SDS011;10179;42.640;23.312;2022-07-29T10:19:33;7.78;;;4.13;;
20036;SDS011;10179;42.640;23.312;2022-07-29T10:22:01;5.28;;;3.97;;
20036;SDS011;10179;42.640;23.312;2022-07-29T10:24:28;7.60;;;4.10;;
20036;SDS011;10179;42.640;23.312;2022-07-29T10:26:56;11.38;;;4.78;;
20036;SDS011;10179;42.640;23.312;2022-07-29T10:29:23;6.15;;;4.20;;
20036;SDS011;10179;42.640;23.312;2022-07-29T10:31:54;8.35;;;3.95;;
20036;SDS011;10179;42.640;23.312;2022-07-29T10:34:34;6.97;;;4.07;;
20036;SDS011;10179;42.640;23.312;2022-07-29T10:43:01;5.82;;;4.38;;
20036;SDS011;10179;42.640;23.312;2022-07-29T10:45:42;6.93;;;4.07;;
20036;SDS011;10179;42.640;23.312;2022-07-29T10:48:10;6.72;;;3.78;;
20036;SDS011;10179;42.640;23.312;2022-07-29T10:50:54;6.15;;;4.30;;
20036;SDS011;10179;42.640;23.312;2022-07-29T10:53:22;6.72;;;3.70;;
20036;SDS011;10179;42.640;23.312;2022-07-29T10:55:49;8.82;;;5.15;;
20036;SDS011;10179;42.640;23.312;2022-07-29T10:58:22;4.10;;;3.70;;
20036;SDS011;10179;42.640;23.312;2022-07-29T11:00:54;36.53;;;4.13;;
20036;SDS011;10179;42.640;23.312;2022-07-29T11:03:42;6.90;;;4.35;;
20036;SDS011;10179;42.640;23.312;2022-07-29T11:06:07;5.43;;;3.83;;
20036;SDS011;10179;42.640;23.312;2022-07-29T11:08:33;4.40;;;3.30;;
20036;SDS011;10179;42.640;23.312;2022-07-29T11:13:57;4.30;;;3.33;;
20036;SDS011;10179;42.640;23.312;2022-07-29T11:16:22;3.67;;;3.38;;
20036;SDS011;10179;42.640;23.312;2022-07-29T11:21:35;4.15;;;3.60;;
20036;SDS011;10179;42.640;23.312;2022-07-29T11:24:15;4.53;;;3.75;;
20036;SDS011;10179;42.640;23.312;2022-07-29T11:26:41;4.05;;;3.65;;
20036;SDS011;10179;42.640;23.312;2022-07-29T11:29:19;4.65;;;4.00;;
20036;SDS011;10179;42.640;23.312;2022-07-29T11:31:48;5.55;;;3.58;;
20036;SDS011;10179;42.640;23.312;2022-07-29T11:39:34;5.13;;;4.15;;
20036;SDS011;10179;42.640;23.312;2022-07-29T11:47:49;7.57;;;4.60;;
20036;SDS011;10179;42.640;23.312;2022-07-29T11:50:37;7.22;;;3.95;;
20036;SDS011;10179;42.640;23.312;2022-07-29T11:53:03;6.50;;;3.72;;
20036;SDS011;10179;42.640;23.312;2022-07-29T11:55:36;4.88;;;3.63;;
20036;SDS011;10179;42.640;23.312;2022-07-29T11:58:03;6.30;;;4.28;;
20036;SDS011;10179;42.640;23.312;2022-07-29T12:00:38;7.18;;;3.92;;
20036;SDS011;10179;42.640;23.312;2022-07-29T12:03:10;5.18;;;3.70;;
20036;SDS011;10179;42.640;23.312;2022-07-29T12:05:37;6.18;;;4.13;;
20036;SDS011;10179;42.640;23.312;2022-07-29T12:08:09;6.55;;;3.95;;
20036;SDS011;10179;42.640;23.312;2022-07-29T12:10:37;4.65;;;4.00;;
20036;SDS011;10179;42.640;23.312;2022-07-29T12:13:03;4.82;;;3.65;;
20036;SDS011;10179;42.640;23.312;2022-07-29T12:15:29;4.50;;;3.90;;
20036;SDS011;10179;42.640;23.312;2022-07-29T12:17:55;5.57;;;3.88;;
20036;SDS011;10179;42.640;23.312;2022-07-29T12:20:29;5.45;;;4.35;;
20036;SDS011;10179;42.640;23.312;2022-07-29T12:22:55;4.10;;;3.70;;
20036;SDS011;10179;42.640;23.312;2022-07-29T12:25:22;4.85;;;3.92;;
20036;SDS011;10179;42.640;23.312;2022-07-29T12:27:58;5.10;;;4.18;;
20036;SDS011;10179;42.640;23.312;2022-07-29T12:30:34;8.82;;;4.60;;
20036;SDS011;10179;42.640;23.312;2022-07-29T12:33:09;6.85;;;4.43;;
20036;SDS011;10179;42.640;23.312;2022-07-29T12:35:36;5.10;;;4.40;;
20036;SDS011;10179;42.640;23.312;2022-07-29T12:38:01;5.53;;;4.20;;
20036;SDS011;10179;42.640;23.312;2022-07-29T12:40:27;5.75;;;4.05;;
20036;SDS011;10179;42.640;23.312;2022-07-29T12:43:04;7.13;;;3.97;;
20036;SDS011;10179;42.640;23.312;2022-07-29T12:45:41;4.65;;;3.97;;
20036;SDS011;10179;42.640;23.312;2022-07-29T12:48:15;6.35;;;4.07;;
20036;SDS011;10179;42.640;23.312;2022-07-29T12:50:54;5.07;;;4.30;;
20036;SDS011;10179;42.640;23.312;2022-07-29T12:53:21;5.70;;;4.50;;
20036;SDS011;10179;42.640;23.312;2022-07-29T12:55:48;6.45;;;4.20;;
20036;SDS011;10179;42.640;23.312;2022-07-29T12:58:34;5.18;;;4.43;;
20036;SDS011;10179;42.640;23.312;2022-07-29T13:01:03;12.13;;;4.13;;
20036;SDS011;10179;42.640;23.312;2022-07-29T13:03:42;7.57;;;4.35;;
20036;SDS011;10179;42.640;23.312;2022-07-29T13:09:17;4.85;;;3.83;;
20036;SDS011;10179;42.640;23.312;2022-07-29T13:11:45;5.25;;;4.45;;
20036;SDS011;10179;42.640;23.312;2022-07-29T13:14:13;6.57;;;4.43;;
20036;SDS011;10179;42.640;23.312;2022-07-29T13:16:59;3.80;;;3.47;;
20036;SDS011;10179;42.640;23.312;2022-07-29T13:19:33;4.32;;;3.92;;
20036;SDS011;10179;42.640;23.312;2022-07-29T13:22:00;4.82;;;3.88;;
20036;SDS011;10179;42.640;23.312;2022-07-29T13:24:25;5.43;;;4.07;;
20036;SDS011;10179;42.640;23.312;2022-07-29T13:26:51;5.15;;;4.10;;
20036;SDS011;10179;42.640;23.312;2022-07-29T13:29:16;5.30;;;3.80;;
20036;SDS011;10179;42.640;23.312;2022-07-29T13:31:42;4.32;;;3.80;;
20036;SDS011;10179;42.640;23.312;2022-07-29T13:34:08;4.82;;;3.92;;
20036;SDS011;10179;42.640;23.312;2022-07-29T13:36:33;4.28;;;3.85;;
20036;SDS011;10179;42.640;23.312;2022-07-29T13:38:58;4.25;;;3.60;;
20036;SDS011;10179;42.640;23.312;2022-07-29T13:41:26;5.07;;;4.15;;
20036;SDS011;10179;42.640;23.312;2022-07-29T13:43:51;5.60;;;3.80;;
20036;SDS011;10179;42.640;23.312;2022-07-29T13:46:16;7.10;;;3.95;;
20036;SDS011;10179;42.640;23.312;2022-07-29T13:48:42;4.28;;;3.83;;
20036;SDS011;10179;42.640;23.312;2022-07-29T13:51:07;5.55;;;4.40;;
20036;SDS011;10179;42.640;23.312;2022-07-29T13:53:33;5.80;;;3.70;;
20036;SDS011;10179;42.640;23.312;2022-07-29T13:55:58;5.57;;;3.83;;
20036;SDS011;10179;42.640;23.312;2022-07-29T13:58:23;4.05;;;3.65;;
20036;SDS011;10179;42.640;23.312;2022-07-29T14:00:49;6.60;;;4.20;;
20036;SDS011;10179;42.640;23.312;2022-07-29T14:03:15;6.80;;;4.43;;
20036;SDS011;10179;42.640;23.312;2022-07-29T14:05:40;6.18;;;4.18;;
20036;SDS011;10179;42.640;23.312;2022-07-29T14:08:06;3.80;;;3.50;;
20036;SDS011;10179;42.640;23.312;2022-07-29T14:10:31;7.43;;;4.55;;
20036;SDS011;10179;42.640;23.312;2022-07-29T14:12:56;5.50;;;4.32;;
20036;SDS011;10179;42.640;23.312;2022-07-29T14:15:22;8.68;;;4.63;;
20036;SDS011;10179;42.640;23.312;2022-07-29T14:17:48;8.10;;;4.40;;
20036;SDS011;10179;42.640;23.312;2022-07-29T14:20:13;6.03;;;4.32;;
20036;SDS011;10179;42.640;23.312;2022-07-29T14:22:40;5.32;;;4.38;;
20036;SDS011;10179;42.640;23.312;2022-07-29T14:25:07;4.47;;;4.07;;
20036;SDS011;10179;42.640;23.312;2022-07-29T14:27:33;5.57;;;4.28;;
20036;SDS011;10179;42.640;23.312;2022-07-29T14:29:59;7.47;;;4.75;;
20036;SDS011;10179;42.640;23.312;2022-07-29T14:32:24;5.78;;;4.60;;
20036;SDS011;10179;42.640;23.312;2022-07-29T14:34:49;9.40;;;4.68;;
20036;SDS011;10179;42.640;23.312;2022-07-29T14:37:15;6.50;;;4.47;;
20036;SDS011;10179;42.640;23.312;2022-07-29T14:39:40;5.47;;;4.30;;
20036;SDS011;10179;42.640;23.312;2022-07-29T14:42:06;5.43;;;4.20;;
20036;SDS011;10179;42.640;23.312;2022-07-29T14:44:32;7.00;;;4.72;;
20036;SDS011;10179;42.640;23.312;2022-07-29T14:46:58;6.10;;;4.72;;
20036;SDS011;10179;42.640;23.312;2022-07-29T14:49:25;5.50;;;4.57;;
20036;SDS011;10179;42.640;23.312;2022-07-29T14:51:51;9.27;;;4.53;;
20036;SDS011;10179;42.640;23.312;2022-07-29T14:54:16;8.43;;;4.63;;
20036;SDS011;10179;42.640;23.312;2022-07-29T14:56:42;6.25;;;4.50;;
20036;SDS011;10179;42.640;23.312;2022-07-29T14:59:07;5.53;;;4.30;;
20036;SDS011;10179;42.640;23.312;2022-07-29T15:01:33;4.75;;;4.15;;
20036;SDS011;10179;42.640;23.312;2022-07-29T15:03:59;5.68;;;4.45;;
20036;SDS011;10179;42.640;23.312;2022-07-29T15:06:24;6.85;;;4.80;;
20036;SDS011;10179;42.640;23.312;2022-07-29T15:08:50;5.97;;;4.72;;
20036;SDS011;10179;42.640;23.312;2022-07-29T15:11:15;7.47;;;5.13;;
20036;SDS011;10179;42.640;23.312;2022-07-29T15:13:40;7.07;;;4.82;;
20036;SDS011;10179;42.640;23.312;2022-07-29T15:16:06;5.25;;;4.30;;
20036;SDS011;10179;42.640;23.312;2022-07-29T15:18:32;4.65;;;4.15;;
20036;SDS011;10179;42.640;23.312;2022-07-29T15:20:57;6.25;;;4.93;;
20036;SDS011;10179;42.640;23.312;2022-07-29T15:23:22;5.97;;;4.47;;
20036;SDS011;10179;42.640;23.312;2022-07-29T15:25:48;8.70;;;4.03;;